sensor_id;sensor_type;location;lat;lon;timestamp;P1;durP1;ratioP1;P2;durP2;ratioP2
19599;SDS011;9947;57.722;12.012;2022-11-15T00:00:32;11.80;;;6.53;;
19599;SDS011;9947;57.722;12.012;2022-11-15T00:03:00;13.77;;;5.90;;
19599;SDS011;9947;57.722;12.012;2022-11-15T00:05:26;10.97;;;6.13;;
19599;SDS011;9947;57.722;12.012;2022-11-15T00:07:53;12.30;;;6.97;;
19599;SDS011;9947;57.722;12.012;2022-11-15T00:10:20;12.43;;;6.73;;
19599;SDS011;9947;57.722;12.012;2022-11-15T00:12:47;8.03;;;6.40;;
19599;SDS011;9947;57.722;12.012;2022-11-15T00:15:17;8.33;;;6.07;;
19599;SDS011;9947;57.722;12.012;2022-11-15T00:17:44;10.13;;;6.73;;
19599;SDS011;9947;57.722;12.012;2022-11-15T00:20:14;11.27;;;6.40;;
19599;SDS011;9947;57.722;12.012;2022-11-15T00:22:41;9.53;;;6.13;;
19599;SDS011;9947;57.722;12.012;2022-11-15T00:25:10;11.20;;;6.47;;
19599;SDS011;9947;57.722;12.012;2022-11-15T00:27:37;10.33;;;6.13;;
19599;SDS011;9947;57.722;12.012;2022-11-15T00:30:04;10.87;;;7.40;;
19599;SDS011;9947;57.722;12.012;2022-11-15T00:32:33;9.47;;;6.27;;
19599;SDS011;9947;57.722;12.012;2022-11-15T00:35:00;16.17;;;6.80;;
19599;SDS011;9947;57.722;12.012;2022-11-15T00:37:27;13.07;;;7.10;;
19599;SDS011;9947;57.722;12.012;2022-11-15T00:39:53;8.33;;;6.00;;
19599;SDS011;9947;57.722;12.012;2022-11-15T00:42:20;10.77;;;6.73;;
19599;SDS011;9947;57.722;12.012;2022-11-15T00:44:47;11.60;;;7.37;;
19599;SDS011;9947;57.722;12.012;2022-11-15T00:47:14;12.97;;;6.70;;
19599;SDS011;9947;57.722;12.012;2022-11-15T00:49:42;16.47;;;7.33;;
19599;SDS011;9947;57.722;12.012;2022-11-15T00:52:09;8.60;;;6.23;;
19599;SDS011;9947;57.722;12.012;2022-11-15T00:54:36;10.27;;;6.60;;
19599;SDS011;9947;57.722;12.012;2022-11-15T00:57:03;10.67;;;6.70;;
19599;SDS011;9947;57.722;12.012;2022-11-15T00:59:30;14.20;;;7.30;;
19599;SDS011;9947;57.722;12.012;2022-11-15T01:01:57;9.87;;;6.30;;
19599;SDS011;9947;57.722;12.012;2022-11-15T01:04:24;12.43;;;6.87;;
19599;SDS011;9947;57.722;12.012;2022-11-15T01:06:52;9.80;;;6.30;;
19599;SDS011;9947;57.722;12.012;2022-11-15T01:09:19;11.63;;;6.30;;
19599;SDS011;9947;57.722;12.012;2022-11-15T01:11:46;9.83;;;6.27;;
19599;SDS011;9947;57.722;12.012;2022-11-15T01:14:13;11.77;;;6.63;;
19599;SDS011;9947;57.722;12.012;2022-11-15T01:16:40;12.73;;;7.00;;
19599;SDS011;9947;57.722;12.012;2022-11-15T01:19:07;9.67;;;6.63;;
19599;SDS011;9947;57.722;12.012;2022-11-15T01:21:33;9.87;;;6.50;;
19599;SDS011;9947;57.722;12.012;2022-11-15T01:24:02;12.13;;;7.00;;
19599;SDS011;9947;57.722;12.012;2022-11-15T01:26:29;11.33;;;6.70;;
19599;SDS011;9947;57.722;12.012;2022-11-15T01:28:56;11.20;;;6.20;;
19599;SDS011;9947;57.722;12.012;2022-11-15T01:31:23;11.87;;;6.40;;
19599;SDS011;9947;57.722;12.012;2022-11-15T01:33:49;14.67;;;6.90;;
19599;SDS011;9947;57.722;12.012;2022-11-15T01:36:17;9.47;;;6.77;;
19599;SDS011;9947;57.722;12.012;2022-11-15T01:38:47;13.97;;;7.03;;
19599;SDS011;9947;57.722;12.012;2022-11-15T01:41:22;11.70;;;6.60;;
19599;SDS011;9947;57.722;12.012;2022-11-15T01:43:51;9.90;;;6.90;;
19599;SDS011;9947;57.722;12.012;2022-11-15T01:46:24;11.50;;;6.80;;
19599;SDS011;9947;57.722;12.012;2022-11-15T01:48:56;12.00;;;6.53;;
19599;SDS011;9947;57.722;12.012;2022-11-15T01:51:29;12.40;;;6.67;;
19599;SDS011;9947;57.722;12.012;2022-11-15T01:54:01;13.73;;;7.13;;
19599;SDS011;9947;57.722;12.012;2022-11-15T01:56:33;10.57;;;6.27;;
19599;SDS011;9947;57.722;12.012;2022-11-15T01:59:06;12.33;;;6.47;;
19599;SDS011;9947;57.722;12.012;2022-11-15T02:01:34;12.20;;;7.00;;
19599;SDS011;9947;57.722;12.012;2022-11-15T02:04:02;11.47;;;6.67;;
19599;SDS011;9947;57.722;12.012;2022-11-15T02:06:33;11.07;;;6.30;;
19599;SDS011;9947;57.722;12.012;2022-11-15T02:09:02;10.03;;;6.40;;
19599;SDS011;9947;57.722;12.012;2022-11-15T02:11:29;11.87;;;6.70;;
19599;SDS011;9947;57.722;12.012;2022-11-15T02:13:57;10.50;;;6.63;;
19599;SDS011;9947;57.722;12.012;2022-11-15T02:16:30;10.77;;;6.80;;
19599;SDS011;9947;57.722;12.012;2022-11-15T02:19:12;9.13;;;6.03;;
19599;SDS011;9947;57.722;12.012;2022-11-15T02:21:55;10.67;;;6.50;;
19599;SDS011;9947;57.722;12.012;2022-11-15T02:30:36;12.03;;;6.93;;
19599;SDS011;9947;57.722;12.012;2022-11-15T02:33:10;11.40;;;6.70;;
19599;SDS011;9947;57.722;12.012;2022-11-15T02:35:48;10.60;;;6.23;;
19599;SDS011;9947;57.722;12.012;2022-11-15T02:38:25;14.13;;;6.53;;
19599;SDS011;9947;57.722;12.012;2022-11-15T02:40:59;10.23;;;6.47;;
19599;SDS011;9947;57.722;12.012;2022-11-15T02:43:29;10.83;;;6.33;;
19599;SDS011;9947;57.722;12.012;2022-11-15T02:46:22;13.03;;;7.03;;
19599;SDS011;9947;57.722;12.012;2022-11-15T02:49:14;12.70;;;6.40;;
19599;SDS011;9947;57.722;12.012;2022-11-15T02:51:42;13.47;;;6.93;;
19599;SDS011;9947;57.722;12.012;2022-11-15T02:54:12;10.53;;;6.40;;
19599;SDS011;9947;57.722;12.012;2022-11-15T02:56:41;11.57;;;6.17;;
19599;SDS011;9947;57.722;12.012;2022-11-15T02:59:19;10.10;;;6.50;;
19599;SDS011;9947;57.722;12.012;2022-11-15T03:02:08;9.60;;;6.53;;
19599;SDS011;9947;57.722;12.012;2022-11-15T03:04:51;9.43;;;6.60;;
19599;SDS011;9947;57.722;12.012;2022-11-15T03:07:24;11.77;;;7.33;;
19599;SDS011;9947;57.722;12.012;2022-11-15T03:09:56;13.10;;;6.93;;
19599;SDS011;9947;57.722;12.012;2022-11-15T03:12:34;9.73;;;6.70;;
19599;SDS011;9947;57.722;12.012;2022-11-15T03:15:05;13.40;;;7.03;;
19599;SDS011;9947;57.722;12.012;2022-11-15T03:17:41;10.73;;;6.63;;
19599;SDS011;9947;57.722;12.012;2022-11-15T03:20:15;11.83;;;6.30;;
19599;SDS011;9947;57.722;12.012;2022-11-15T03:22:44;10.60;;;6.63;;
19599;SDS011;9947;57.722;12.012;2022-11-15T03:25:16;10.53;;;6.60;;
19599;SDS011;9947;57.722;12.012;2022-11-15T03:27:46;10.40;;;6.63;;
19599;SDS011;9947;57.722;12.012;2022-11-15T03:30:17;15.90;;;7.97;;
19599;SDS011;9947;57.722;12.012;2022-11-15T03:32:46;10.07;;;6.50;;
19599;SDS011;9947;57.722;12.012;2022-11-15T03:35:17;11.63;;;6.70;;
19599;SDS011;9947;57.722;12.012;2022-11-15T03:37:48;12.97;;;7.10;;
19599;SDS011;9947;57.722;12.012;2022-11-15T03:40:20;13.53;;;7.37;;
19599;SDS011;9947;57.722;12.012;2022-11-15T03:42:53;10.60;;;7.07;;
19599;SDS011;9947;57.722;12.012;2022-11-15T03:45:29;10.47;;;6.67;;
19599;SDS011;9947;57.722;12.012;2022-11-15T03:48:09;10.93;;;6.97;;
19599;SDS011;9947;57.722;12.012;2022-11-15T03:50:39;11.40;;;6.77;;
19599;SDS011;9947;57.722;12.012;2022-11-15T03:53:07;10.50;;;7.33;;
19599;SDS011;9947;57.722;12.012;2022-11-15T03:55:34;9.63;;;7.10;;
19599;SDS011;9947;57.722;12.012;2022-11-15T03:58:01;12.17;;;7.37;;
19599;SDS011;9947;57.722;12.012;2022-11-15T04:00:28;12.67;;;8.23;;
19599;SDS011;9947;57.722;12.012;2022-11-15T04:02:55;12.73;;;8.40;;
19599;SDS011;9947;57.722;12.012;2022-11-15T04:05:24;14.37;;;8.27;;
19599;SDS011;9947;57.722;12.012;2022-11-15T04:07:51;16.60;;;9.13;;
19599;SDS011;9947;57.722;12.012;2022-11-15T04:10:18;13.70;;;8.70;;
19599;SDS011;9947;57.722;12.012;2022-11-15T04:12:46;14.97;;;8.77;;
19599;SDS011;9947;57.722;12.012;2022-11-15T04:15:14;15.07;;;9.00;;
19599;SDS011;9947;57.722;12.012;2022-11-15T04:17:42;13.70;;;9.13;;
19599;SDS011;9947;57.722;12.012;2022-11-15T04:20:11;15.03;;;9.30;;
19599;SDS011;9947;57.722;12.012;2022-11-15T04:23:01;15.13;;;8.57;;
19599;SDS011;9947;57.722;12.012;2022-11-15T04:25:49;15.83;;;8.57;;
19599;SDS011;9947;57.722;12.012;2022-11-15T04:28:17;13.97;;;9.20;;
19599;SDS011;9947;57.722;12.012;2022-11-15T04:30:45;14.10;;;8.80;;
19599;SDS011;9947;57.722;12.012;2022-11-15T04:33:12;13.37;;;8.47;;
19599;SDS011;9947;57.722;12.012;2022-11-15T04:35:39;13.63;;;8.47;;
19599;SDS011;9947;57.722;12.012;2022-11-15T04:38:09;13.00;;;8.30;;
19599;SDS011;9947;57.722;12.012;2022-11-15T04:40:35;15.33;;;8.60;;
19599;SDS011;9947;57.722;12.012;2022-11-15T04:43:03;14.70;;;8.40;;
19599;SDS011;9947;57.722;12.012;2022-11-15T04:45:30;16.10;;;8.23;;
19599;SDS011;9947;57.722;12.012;2022-11-15T04:47:56;13.53;;;7.93;;
19599;SDS011;9947;57.722;12.012;2022-11-15T04:50:23;15.77;;;8.17;;
19599;SDS011;9947;57.722;12.012;2022-11-15T04:52:50;11.70;;;8.20;;
19599;SDS011;9947;57.722;12.012;2022-11-15T04:55:22;13.93;;;8.23;;
19599;SDS011;9947;57.722;12.012;2022-11-15T04:57:56;13.30;;;7.63;;
19599;SDS011;9947;57.722;12.012;2022-11-15T05:00:24;15.80;;;8.17;;
19599;SDS011;9947;57.722;12.012;2022-11-15T05:02:52;14.63;;;8.63;;
19599;SDS011;9947;57.722;12.012;2022-11-15T05:05:36;15.23;;;8.27;;
19599;SDS011;9947;57.722;12.012;2022-11-15T05:08:03;12.97;;;7.73;;
19599;SDS011;9947;57.722;12.012;2022-11-15T05:10:35;12.43;;;7.03;;
19599;SDS011;9947;57.722;12.012;2022-11-15T05:13:01;13.70;;;8.13;;
19599;SDS011;9947;57.722;12.012;2022-11-15T05:15:28;14.23;;;7.90;;
19599;SDS011;9947;57.722;12.012;2022-11-15T05:17:57;12.27;;;7.90;;
19599;SDS011;9947;57.722;12.012;2022-11-15T05:20:25;11.03;;;7.43;;
19599;SDS011;9947;57.722;12.012;2022-11-15T05:22:54;13.97;;;7.07;;
19599;SDS011;9947;57.722;12.012;2022-11-15T05:25:21;12.07;;;6.93;;
19599;SDS011;9947;57.722;12.012;2022-11-15T05:27:50;11.53;;;7.20;;
19599;SDS011;9947;57.722;12.012;2022-11-15T05:30:17;14.77;;;7.47;;
19599;SDS011;9947;57.722;12.012;2022-11-15T05:32:44;9.63;;;6.90;;
19599;SDS011;9947;57.722;12.012;2022-11-15T05:35:12;15.33;;;7.93;;
19599;SDS011;9947;57.722;12.012;2022-11-15T05:37:44;12.13;;;7.00;;
19599;SDS011;9947;57.722;12.012;2022-11-15T05:40:11;11.93;;;7.17;;
19599;SDS011;9947;57.722;12.012;2022-11-15T05:42:38;10.67;;;7.30;;
19599;SDS011;9947;57.722;12.012;2022-11-15T05:45:07;10.70;;;7.50;;
19599;SDS011;9947;57.722;12.012;2022-11-15T05:47:35;14.63;;;7.20;;
19599;SDS011;9947;57.722;12.012;2022-11-15T05:50:05;12.93;;;7.30;;
19599;SDS011;9947;57.722;12.012;2022-11-15T05:52:34;11.73;;;7.17;;
19599;SDS011;9947;57.722;12.012;2022-11-15T05:55:03;14.23;;;8.00;;
19599;SDS011;9947;57.722;12.012;2022-11-15T05:57:33;11.73;;;8.00;;
19599;SDS011;9947;57.722;12.012;2022-11-15T06:00:00;11.00;;;7.27;;
19599;SDS011;9947;57.722;12.012;2022-11-15T06:02:29;12.57;;;7.53;;
19599;SDS011;9947;57.722;12.012;2022-11-15T06:04:56;12.00;;;7.83;;
19599;SDS011;9947;57.722;12.012;2022-11-15T06:07:23;11.00;;;7.00;;
19599;SDS011;9947;57.722;12.012;2022-11-15T06:09:50;12.50;;;7.20;;
19599;SDS011;9947;57.722;12.012;2022-11-15T06:12:16;10.70;;;7.17;;
19599;SDS011;9947;57.722;12.012;2022-11-15T06:14:43;11.07;;;7.20;;
19599;SDS011;9947;57.722;12.012;2022-11-15T06:17:10;14.33;;;7.90;;
19599;SDS011;9947;57.722;12.012;2022-11-15T06:19:38;10.63;;;7.07;;
19599;SDS011;9947;57.722;12.012;2022-11-15T06:22:05;12.93;;;6.80;;
19599;SDS011;9947;57.722;12.012;2022-11-15T06:24:34;12.40;;;6.97;;
19599;SDS011;9947;57.722;12.012;2022-11-15T06:27:01;12.57;;;7.23;;
19599;SDS011;9947;57.722;12.012;2022-11-15T06:29:28;13.10;;;6.70;;
19599;SDS011;9947;57.722;12.012;2022-11-15T06:31:54;10.07;;;6.47;;
19599;SDS011;9947;57.722;12.012;2022-11-15T06:34:21;10.73;;;6.90;;
19599;SDS011;9947;57.722;12.012;2022-11-15T06:36:52;10.40;;;6.47;;
19599;SDS011;9947;57.722;12.012;2022-11-15T06:39:20;10.20;;;6.27;;
19599;SDS011;9947;57.722;12.012;2022-11-15T06:41:47;13.60;;;6.33;;
19599;SDS011;9947;57.722;12.012;2022-11-15T06:44:13;10.03;;;6.37;;
19599;SDS011;9947;57.722;12.012;2022-11-15T06:46:41;10.43;;;6.83;;
19599;SDS011;9947;57.722;12.012;2022-11-15T06:49:08;8.87;;;6.37;;
19599;SDS011;9947;57.722;12.012;2022-11-15T06:51:35;11.33;;;6.43;;
19599;SDS011;9947;57.722;12.012;2022-11-15T06:54:03;9.80;;;6.20;;
19599;SDS011;9947;57.722;12.012;2022-11-15T06:56:30;9.33;;;5.83;;
19599;SDS011;9947;57.722;12.012;2022-11-15T06:58:57;8.83;;;5.60;;
19599;SDS011;9947;57.722;12.012;2022-11-15T07:01:24;10.53;;;6.80;;
19599;SDS011;9947;57.722;12.012;2022-11-15T07:03:50;9.03;;;6.10;;
19599;SDS011;9947;57.722;12.012;2022-11-15T07:06:17;11.83;;;6.23;;
19599;SDS011;9947;57.722;12.012;2022-11-15T07:08:44;8.20;;;5.70;;
19599;SDS011;9947;57.722;12.012;2022-11-15T07:11:12;11.67;;;6.53;;
19599;SDS011;9947;57.722;12.012;2022-11-15T07:13:40;12.77;;;7.00;;
19599;SDS011;9947;57.722;12.012;2022-11-15T07:16:07;9.43;;;6.07;;
19599;SDS011;9947;57.722;12.012;2022-11-15T07:18:36;9.03;;;6.27;;
19599;SDS011;9947;57.722;12.012;2022-11-15T07:21:07;10.60;;;6.10;;
19599;SDS011;9947;57.722;12.012;2022-11-15T07:23:35;7.47;;;5.60;;
19599;SDS011;9947;57.722;12.012;2022-11-15T07:26:03;10.10;;;5.63;;
19599;SDS011;9947;57.722;12.012;2022-11-15T07:28:32;10.23;;;5.83;;
19599;SDS011;9947;57.722;12.012;2022-11-15T07:31:01;10.13;;;6.40;;
19599;SDS011;9947;57.722;12.012;2022-11-15T07:33:29;8.00;;;5.70;;
19599;SDS011;9947;57.722;12.012;2022-11-15T07:35:58;9.47;;;6.03;;
19599;SDS011;9947;57.722;12.012;2022-11-15T07:38:26;11.43;;;5.97;;
19599;SDS011;9947;57.722;12.012;2022-11-15T07:40:55;9.53;;;5.50;;
19599;SDS011;9947;57.722;12.012;2022-11-15T07:43:23;10.40;;;5.83;;
19599;SDS011;9947;57.722;12.012;2022-11-15T07:45:54;9.60;;;6.07;;
19599;SDS011;9947;57.722;12.012;2022-11-15T07:48:23;7.60;;;5.33;;
19599;SDS011;9947;57.722;12.012;2022-11-15T07:50:50;8.23;;;5.50;;
19599;SDS011;9947;57.722;12.012;2022-11-15T07:53:17;7.97;;;5.43;;
19599;SDS011;9947;57.722;12.012;2022-11-15T07:55:44;8.37;;;5.23;;
19599;SDS011;9947;57.722;12.012;2022-11-15T07:58:10;12.93;;;6.30;;
19599;SDS011;9947;57.722;12.012;2022-11-15T08:00:38;10.17;;;5.73;;
19599;SDS011;9947;57.722;12.012;2022-11-15T08:03:07;12.20;;;6.17;;
19599;SDS011;9947;57.722;12.012;2022-11-15T08:05:35;8.70;;;5.77;;
19599;SDS011;9947;57.722;12.012;2022-11-15T08:08:03;8.53;;;5.20;;
19599;SDS011;9947;57.722;12.012;2022-11-15T08:10:31;15.57;;;6.10;;
19599;SDS011;9947;57.722;12.012;2022-11-15T08:12:58;11.30;;;6.07;;
19599;SDS011;9947;57.722;12.012;2022-11-15T08:15:25;9.67;;;5.87;;
19599;SDS011;9947;57.722;12.012;2022-11-15T08:17:55;10.03;;;6.30;;
19599;SDS011;9947;57.722;12.012;2022-11-15T08:20:24;11.23;;;5.90;;
19599;SDS011;9947;57.722;12.012;2022-11-15T08:22:55;9.30;;;5.97;;
19599;SDS011;9947;57.722;12.012;2022-11-15T08:25:22;10.10;;;6.00;;
19599;SDS011;9947;57.722;12.012;2022-11-15T08:27:51;8.63;;;5.63;;
19599;SDS011;9947;57.722;12.012;2022-11-15T08:30:19;9.20;;;5.93;;
19599;SDS011;9947;57.722;12.012;2022-11-15T08:32:46;10.07;;;5.83;;
19599;SDS011;9947;57.722;12.012;2022-11-15T08:35:13;8.73;;;6.00;;
19599;SDS011;9947;57.722;12.012;2022-11-15T08:37:42;10.03;;;5.87;;
19599;SDS011;9947;57.722;12.012;2022-11-15T08:40:09;7.97;;;5.33;;
19599;SDS011;9947;57.722;12.012;2022-11-15T08:42:37;10.83;;;5.90;;
19599;SDS011;9947;57.722;12.012;2022-11-15T08:45:06;9.20;;;5.70;;
19599;SDS011;9947;57.722;12.012;2022-11-15T08:47:34;10.27;;;6.00;;
19599;SDS011;9947;57.722;12.012;2022-11-15T08:50:01;9.97;;;5.70;;
19599;SDS011;9947;57.722;12.012;2022-11-15T08:52:28;9.20;;;5.97;;
19599;SDS011;9947;57.722;12.012;2022-11-15T08:54:56;10.00;;;5.97;;
19599;SDS011;9947;57.722;12.012;2022-11-15T08:57:23;9.13;;;5.50;;
19599;SDS011;9947;57.722;12.012;2022-11-15T08:59:50;9.60;;;5.97;;
19599;SDS011;9947;57.722;12.012;2022-11-15T09:02:16;8.93;;;5.67;;
19599;SDS011;9947;57.722;12.012;2022-11-15T09:04:47;9.10;;;5.70;;
19599;SDS011;9947;57.722;12.012;2022-11-15T09:07:13;12.17;;;5.70;;
19599;SDS011;9947;57.722;12.012;2022-11-15T09:09:43;8.43;;;5.73;;
19599;SDS011;9947;57.722;12.012;2022-11-15T09:12:11;8.97;;;5.47;;
19599;SDS011;9947;57.722;12.012;2022-11-15T09:14:38;8.57;;;5.83;;
19599;SDS011;9947;57.722;12.012;2022-11-15T09:17:06;9.00;;;5.33;;
19599;SDS011;9947;57.722;12.012;2022-11-15T09:19:34;8.37;;;5.53;;
19599;SDS011;9947;57.722;12.012;2022-11-15T09:22:01;9.80;;;5.80;;
19599;SDS011;9947;57.722;12.012;2022-11-15T09:24:32;10.37;;;5.43;;
19599;SDS011;9947;57.722;12.012;2022-11-15T09:26:58;10.13;;;5.53;;
19599;SDS011;9947;57.722;12.012;2022-11-15T09:29:27;8.83;;;5.47;;
19599;SDS011;9947;57.722;12.012;2022-11-15T09:31:54;10.17;;;5.37;;
19599;SDS011;9947;57.722;12.012;2022-11-15T09:34:20;9.13;;;5.53;;
19599;SDS011;9947;57.722;12.012;2022-11-15T09:36:50;10.47;;;5.60;;
19599;SDS011;9947;57.722;12.012;2022-11-15T09:39:20;10.60;;;5.37;;
19599;SDS011;9947;57.722;12.012;2022-11-15T09:44:50;8.23;;;5.10;;
19599;SDS011;9947;57.722;12.012;2022-11-15T09:47:32;9.97;;;5.33;;
19599;SDS011;9947;57.722;12.012;2022-11-15T09:50:12;7.30;;;5.27;;
19599;SDS011;9947;57.722;12.012;2022-11-15T09:52:42;8.47;;;5.37;;
19599;SDS011;9947;57.722;12.012;2022-11-15T09:55:11;9.13;;;5.43;;
19599;SDS011;9947;57.722;12.012;2022-11-15T09:57:49;8.53;;;5.50;;
19599;SDS011;9947;57.722;12.012;2022-11-15T10:00:22;10.83;;;5.60;;
19599;SDS011;9947;57.722;12.012;2022-11-15T10:03:01;10.37;;;6.47;;
19599;SDS011;9947;57.722;12.012;2022-11-15T10:05:37;10.13;;;5.83;;
19599;SDS011;9947;57.722;12.012;2022-11-15T10:08:10;10.77;;;5.50;;
19599;SDS011;9947;57.722;12.012;2022-11-15T10:10:54;10.43;;;5.97;;
19599;SDS011;9947;57.722;12.012;2022-11-15T10:13:24;10.30;;;5.93;;
19599;SDS011;9947;57.722;12.012;2022-11-15T10:15:57;9.13;;;5.90;;
19599;SDS011;9947;57.722;12.012;2022-11-15T10:18:41;9.83;;;6.17;;
19599;SDS011;9947;57.722;12.012;2022-11-15T10:21:19;9.87;;;5.23;;
19599;SDS011;9947;57.722;12.012;2022-11-15T10:23:58;8.17;;;5.63;;
19599;SDS011;9947;57.722;12.012;2022-11-15T10:26:25;9.83;;;6.13;;
19599;SDS011;9947;57.722;12.012;2022-11-15T10:28:53;9.37;;;5.57;;
19599;SDS011;9947;57.722;12.012;2022-11-15T10:31:23;11.30;;;6.10;;
19599;SDS011;9947;57.722;12.012;2022-11-15T10:33:56;10.57;;;6.17;;
19599;SDS011;9947;57.722;12.012;2022-11-15T10:36:36;8.67;;;5.67;;
19599;SDS011;9947;57.722;12.012;2022-11-15T10:39:10;9.10;;;5.40;;
19599;SDS011;9947;57.722;12.012;2022-11-15T10:41:39;9.20;;;5.73;;
19599;SDS011;9947;57.722;12.012;2022-11-15T10:44:12;7.37;;;4.90;;
19599;SDS011;9947;57.722;12.012;2022-11-15T10:52:52;8.80;;;5.73;;
19599;SDS011;9947;57.722;12.012;2022-11-15T10:55:21;9.23;;;5.30;;
19599;SDS011;9947;57.722;12.012;2022-11-15T10:57:52;8.10;;;5.57;;
19599;SDS011;9947;57.722;12.012;2022-11-15T11:00:27;10.90;;;5.93;;
19599;SDS011;9947;57.722;12.012;2022-11-15T11:03:26;8.17;;;5.07;;
19599;SDS011;9947;57.722;12.012;2022-11-15T11:06:04;8.97;;;5.30;;
19599;SDS011;9947;57.722;12.012;2022-11-15T11:08:34;7.70;;;5.00;;
19599;SDS011;9947;57.722;12.012;2022-11-15T11:11:02;10.83;;;5.07;;
19599;SDS011;9947;57.722;12.012;2022-11-15T11:13:30;8.50;;;4.97;;
19599;SDS011;9947;57.722;12.012;2022-11-15T11:16:34;6.60;;;4.80;;
19599;SDS011;9947;57.722;12.012;2022-11-15T11:19:17;10.03;;;4.90;;
19599;SDS011;9947;57.722;12.012;2022-11-15T11:21:59;8.03;;;4.93;;
19599;SDS011;9947;57.722;12.012;2022-11-15T11:24:36;8.90;;;5.50;;
19599;SDS011;9947;57.722;12.012;2022-11-15T11:27:26;7.67;;;4.67;;
19599;SDS011;9947;57.722;12.012;2022-11-15T11:30:13;8.13;;;5.17;;
19599;SDS011;9947;57.722;12.012;2022-11-15T11:32:53;7.13;;;4.67;;
19599;SDS011;9947;57.722;12.012;2022-11-15T11:35:43;7.53;;;4.73;;
19599;SDS011;9947;57.722;12.012;2022-11-15T11:38:28;6.10;;;4.20;;
19599;SDS011;9947;57.722;12.012;2022-11-15T11:44:33;7.23;;;4.00;;
19599;SDS011;9947;57.722;12.012;2022-11-15T11:47:11;8.80;;;4.33;;
19599;SDS011;9947;57.722;12.012;2022-11-15T11:49:49;5.33;;;4.30;;
19599;SDS011;9947;57.722;12.012;2022-11-15T11:52:21;6.70;;;4.20;;
19599;SDS011;9947;57.722;12.012;2022-11-15T11:54:55;8.00;;;3.87;;
19599;SDS011;9947;57.722;12.012;2022-11-15T11:57:33;5.47;;;3.67;;
19599;SDS011;9947;57.722;12.012;2022-11-15T12:00:13;5.97;;;3.93;;
19599;SDS011;9947;57.722;12.012;2022-11-15T12:02:45;7.63;;;3.80;;
19599;SDS011;9947;57.722;12.012;2022-11-15T12:05:22;6.03;;;3.83;;
19599;SDS011;9947;57.722;12.012;2022-11-15T12:08:12;4.47;;;3.43;;
19599;SDS011;9947;57.722;12.012;2022-11-15T12:10:50;7.37;;;3.93;;
19599;SDS011;9947;57.722;12.012;2022-11-15T12:13:24;6.10;;;3.80;;
19599;SDS011;9947;57.722;12.012;2022-11-15T12:15:59;4.23;;;3.30;;
19599;SDS011;9947;57.722;12.012;2022-11-15T12:18:34;6.03;;;3.70;;
19599;SDS011;9947;57.722;12.012;2022-11-15T12:21:02;7.13;;;3.50;;
19599;SDS011;9947;57.722;12.012;2022-11-15T12:23:37;8.37;;;3.80;;
19599;SDS011;9947;57.722;12.012;2022-11-15T12:26:10;7.73;;;3.70;;
19599;SDS011;9947;57.722;12.012;2022-11-15T12:28:45;5.20;;;3.73;;
19599;SDS011;9947;57.722;12.012;2022-11-15T12:31:16;6.30;;;3.50;;
19599;SDS011;9947;57.722;12.012;2022-11-15T12:33:49;6.00;;;3.40;;
19599;SDS011;9947;57.722;12.012;2022-11-15T12:36:35;5.33;;;3.47;;
19599;SDS011;9947;57.722;12.012;2022-11-15T12:39:07;4.27;;;3.47;;
19599;SDS011;9947;57.722;12.012;2022-11-15T12:41:35;4.60;;;3.40;;
19599;SDS011;9947;57.722;12.012;2022-11-15T12:44:03;5.63;;;3.27;;
19599;SDS011;9947;57.722;12.012;2022-11-15T12:52:11;3.93;;;3.20;;
19599;SDS011;9947;57.722;12.012;2022-11-15T12:54:52;4.77;;;3.47;;
19599;SDS011;9947;57.722;12.012;2022-11-15T13:06:10;5.97;;;3.00;;
19599;SDS011;9947;57.722;12.012;2022-11-15T13:09:49;8.03;;;3.47;;
19599;SDS011;9947;57.722;12.012;2022-11-15T13:12:47;5.10;;;3.10;;
19599;SDS011;9947;57.722;12.012;2022-11-15T13:18:26;4.90;;;3.10;;
19599;SDS011;9947;57.722;12.012;2022-11-15T13:20:56;6.50;;;3.30;;
19599;SDS011;9947;57.722;12.012;2022-11-15T13:23:23;5.57;;;3.20;;
19599;SDS011;9947;57.722;12.012;2022-11-15T13:28:39;6.17;;;3.93;;
19599;SDS011;9947;57.722;12.012;2022-11-15T13:33:58;5.93;;;3.30;;
19599;SDS011;9947;57.722;12.012;2022-11-15T13:36:32;4.43;;;3.47;;
19599;SDS011;9947;57.722;12.012;2022-11-15T13:39:01;6.63;;;3.80;;
19599;SDS011;9947;57.722;12.012;2022-11-15T13:41:34;8.47;;;3.87;;
19599;SDS011;9947;57.722;12.012;2022-11-15T13:44:17;5.77;;;3.83;;
19599;SDS011;9947;57.722;12.012;2022-11-15T13:46:46;10.00;;;3.17;;
19599;SDS011;9947;57.722;12.012;2022-11-15T13:49:13;5.67;;;3.70;;
19599;SDS011;9947;57.722;12.012;2022-11-15T13:51:42;10.20;;;3.60;;
19599;SDS011;9947;57.722;12.012;2022-11-15T13:54:14;5.77;;;3.30;;
19599;SDS011;9947;57.722;12.012;2022-11-15T13:56:45;7.03;;;3.50;;
19599;SDS011;9947;57.722;12.012;2022-11-15T13:59:18;3.47;;;2.90;;
19599;SDS011;9947;57.722;12.012;2022-11-15T14:01:51;2.83;;;2.53;;
19599;SDS011;9947;57.722;12.012;2022-11-15T14:04:19;4.33;;;2.47;;
19599;SDS011;9947;57.722;12.012;2022-11-15T14:06:50;4.80;;;2.20;;
19599;SDS011;9947;57.722;12.012;2022-11-15T14:12:22;2.17;;;1.97;;
19599;SDS011;9947;57.722;12.012;2022-11-15T14:14:54;2.43;;;2.10;;
19599;SDS011;9947;57.722;12.012;2022-11-15T14:17:32;2.73;;;2.17;;
19599;SDS011;9947;57.722;12.012;2022-11-15T14:20:00;6.03;;;2.70;;
19599;SDS011;9947;57.722;12.012;2022-11-15T14:22:28;4.07;;;2.07;;
19599;SDS011;9947;57.722;12.012;2022-11-15T14:30:37;2.40;;;1.87;;
19599;SDS011;9947;57.722;12.012;2022-11-15T14:33:14;2.60;;;2.40;;
19599;SDS011;9947;57.722;12.012;2022-11-15T14:35:45;2.63;;;2.43;;
19599;SDS011;9947;57.722;12.012;2022-11-15T14:38:12;3.90;;;2.23;;
19599;SDS011;9947;57.722;12.012;2022-11-15T14:40:39;2.63;;;2.07;;
19599;SDS011;9947;57.722;12.012;2022-11-15T14:43:07;2.87;;;2.17;;
19599;SDS011;9947;57.722;12.012;2022-11-15T14:45:38;5.67;;;2.40;;
19599;SDS011;9947;57.722;12.012;2022-11-15T14:48:05;3.73;;;2.23;;
19599;SDS011;9947;57.722;12.012;2022-11-15T14:50:32;2.57;;;1.97;;
19599;SDS011;9947;57.722;12.012;2022-11-15T14:53:04;3.13;;;1.93;;
19599;SDS011;9947;57.722;12.012;2022-11-15T14:55:32;2.70;;;1.90;;
19599;SDS011;9947;57.722;12.012;2022-11-15T14:58:01;2.70;;;2.13;;
19599;SDS011;9947;57.722;12.012;2022-11-15T15:00:29;3.90;;;2.20;;
19599;SDS011;9947;57.722;12.012;2022-11-15T15:02:58;2.33;;;2.00;;
19599;SDS011;9947;57.722;12.012;2022-11-15T15:05:30;2.37;;;1.90;;
19599;SDS011;9947;57.722;12.012;2022-11-15T15:08:03;5.67;;;2.00;;
19599;SDS011;9947;57.722;12.012;2022-11-15T15:10:31;1.90;;;1.80;;
19599;SDS011;9947;57.722;12.012;2022-11-15T15:13:01;2.00;;;1.80;;
19599;SDS011;9947;57.722;12.012;2022-11-15T15:15:33;2.13;;;1.80;;
19599;SDS011;9947;57.722;12.012;2022-11-15T15:18:02;2.60;;;1.73;;
19599;SDS011;9947;57.722;12.012;2022-11-15T15:20:30;2.00;;;1.60;;
19599;SDS011;9947;57.722;12.012;2022-11-15T15:22:57;2.10;;;1.63;;
19599;SDS011;9947;57.722;12.012;2022-11-15T15:25:26;1.70;;;1.60;;
19599;SDS011;9947;57.722;12.012;2022-11-15T15:27:54;2.43;;;1.80;;
19599;SDS011;9947;57.722;12.012;2022-11-15T15:30:22;2.97;;;1.80;;
19599;SDS011;9947;57.722;12.012;2022-11-15T15:32:50;3.13;;;2.23;;
19599;SDS011;9947;57.722;12.012;2022-11-15T15:35:18;1.53;;;1.43;;
19599;SDS011;9947;57.722;12.012;2022-11-15T15:37:45;1.97;;;1.60;;
19599;SDS011;9947;57.722;12.012;2022-11-15T15:40:14;2.03;;;1.60;;
19599;SDS011;9947;57.722;12.012;2022-11-15T15:42:42;1.87;;;1.50;;
19599;SDS011;9947;57.722;12.012;2022-11-15T15:45:10;1.70;;;1.60;;
19599;SDS011;9947;57.722;12.012;2022-11-15T15:47:37;1.50;;;1.40;;
19599;SDS011;9947;57.722;12.012;2022-11-15T15:50:04;1.50;;;1.40;;
19599;SDS011;9947;57.722;12.012;2022-11-15T15:52:48;1.50;;;1.40;;